sensor_id;sensor_type;location;lat;lon;timestamp;P1;durP1;ratioP1;P2;durP2;ratioP2
22829;SDS011;11581;51.250;6.778;2023-04-24T00:02:03;0.50;;;0.30;;
22829;SDS011;11581;51.250;6.778;2023-04-24T00:04:31;0.63;;;0.50;;
22829;SDS011;11581;51.250;6.778;2023-04-24T00:06:58;0.98;;;0.57;;
22829;SDS011;11581;51.250;6.778;2023-04-24T00:09:25;1.50;;;0.50;;
22829;SDS011;11581;51.250;6.778;2023-04-24T00:11:52;1.30;;;0.63;;
22829;SDS011;11581;51.250;6.778;2023-04-24T00:14:18;0.93;;;0.55;;
22829;SDS011;11581;51.250;6.778;2023-04-24T00:16:45;0.82;;;0.50;;
22829;SDS011;11581;51.250;6.778;2023-04-24T00:19:11;0.57;;;0.43;;
22829;SDS011;11581;51.250;6.778;2023-04-24T00:21:38;1.00;;;0.47;;
22829;SDS011;11581;51.250;6.778;2023-04-24T00:24:04;1.17;;;0.60;;
22829;SDS011;11581;51.250;6.778;2023-04-24T00:26:31;3.33;;;0.85;;
22829;SDS011;11581;51.250;6.778;2023-04-24T00:28:57;0.77;;;0.60;;
22829;SDS011;11581;51.250;6.778;2023-04-24T00:31:25;1.42;;;0.70;;
22829;SDS011;11581;51.250;6.778;2023-04-24T00:33:51;1.20;;;0.70;;
22829;SDS011;11581;51.250;6.778;2023-04-24T00:36:18;1.73;;;0.80;;
22829;SDS011;11581;51.250;6.778;2023-04-24T00:38:45;1.35;;;0.70;;
22829;SDS011;11581;51.250;6.778;2023-04-24T00:41:12;1.70;;;0.80;;
22829;SDS011;11581;51.250;6.778;2023-04-24T00:43:39;1.20;;;0.75;;
22829;SDS011;11581;51.250;6.778;2023-04-24T00:46:05;1.08;;;0.55;;
22829;SDS011;11581;51.250;6.778;2023-04-24T00:48:32;1.83;;;0.80;;
22829;SDS011;11581;51.250;6.778;2023-04-24T00:50:59;1.42;;;0.75;;
22829;SDS011;11581;51.250;6.778;2023-04-24T00:53:25;3.22;;;0.98;;
22829;SDS011;11581;51.250;6.778;2023-04-24T00:55:52;1.90;;;0.90;;
22829;SDS011;11581;51.250;6.778;2023-04-24T00:58:18;0.73;;;0.55;;
22829;SDS011;11581;51.250;6.778;2023-04-24T01:00:46;1.98;;;0.82;;
22829;SDS011;11581;51.250;6.778;2023-04-24T01:03:15;1.83;;;0.90;;
22829;SDS011;11581;51.250;6.778;2023-04-24T01:05:42;3.30;;;1.00;;
22829;SDS011;11581;51.250;6.778;2023-04-24T01:08:08;1.52;;;0.80;;
22829;SDS011;11581;51.250;6.778;2023-04-24T01:10:35;2.13;;;1.20;;
22829;SDS011;11581;51.250;6.778;2023-04-24T01:13:02;3.20;;;1.25;;
22829;SDS011;11581;51.250;6.778;2023-04-24T01:15:29;3.05;;;0.98;;
22829;SDS011;11581;51.250;6.778;2023-04-24T01:17:56;1.42;;;0.88;;
22829;SDS011;11581;51.250;6.778;2023-04-24T01:20:22;4.15;;;1.48;;
22829;SDS011;11581;51.250;6.778;2023-04-24T01:22:53;3.13;;;1.70;;
22829;SDS011;11581;51.250;6.778;2023-04-24T01:25:22;4.05;;;1.77;;
22829;SDS011;11581;51.250;6.778;2023-04-24T01:27:49;2.80;;;1.80;;
22829;SDS011;11581;51.250;6.778;2023-04-24T01:30:16;4.10;;;2.00;;
22829;SDS011;11581;51.250;6.778;2023-04-24T01:32:43;4.50;;;2.65;;
22829;SDS011;11581;51.250;6.778;2023-04-24T01:35:10;5.50;;;2.75;;
22829;SDS011;11581;51.250;6.778;2023-04-24T01:37:37;4.43;;;2.75;;
22829;SDS011;11581;51.250;6.778;2023-04-24T01:40:04;5.72;;;3.00;;
22829;SDS011;11581;51.250;6.778;2023-04-24T01:42:32;4.47;;;3.10;;
22829;SDS011;11581;51.250;6.778;2023-04-24T01:45:01;5.78;;;3.63;;
22829;SDS011;11581;51.250;6.778;2023-04-24T01:47:30;5.22;;;3.17;;
22829;SDS011;11581;51.250;6.778;2023-04-24T01:49:58;5.28;;;3.15;;
22829;SDS011;11581;51.250;6.778;2023-04-24T01:52:24;5.45;;;3.20;;
22829;SDS011;11581;51.250;6.778;2023-04-24T01:54:52;6.40;;;3.53;;
22829;SDS011;11581;51.250;6.778;2023-04-24T01:57:21;8.13;;;4.40;;
22829;SDS011;11581;51.250;6.778;2023-04-24T01:59:48;7.68;;;4.05;;
22829;SDS011;11581;51.250;6.778;2023-04-24T02:02:15;6.85;;;3.88;;
22829;SDS011;11581;51.250;6.778;2023-04-24T02:04:42;6.15;;;3.78;;
22829;SDS011;11581;51.250;6.778;2023-04-24T02:07:08;5.82;;;3.50;;
22829;SDS011;11581;51.250;6.778;2023-04-24T02:09:35;6.07;;;3.80;;
22829;SDS011;11581;51.250;6.778;2023-04-24T02:12:01;6.10;;;4.22;;
22829;SDS011;11581;51.250;6.778;2023-04-24T02:14:28;8.18;;;4.53;;
22829;SDS011;11581;51.250;6.778;2023-04-24T02:16:54;9.63;;;4.43;;
22829;SDS011;11581;51.250;6.778;2023-04-24T02:19:21;5.97;;;4.28;;
22829;SDS011;11581;51.250;6.778;2023-04-24T02:21:49;6.32;;;3.97;;
22829;SDS011;11581;51.250;6.778;2023-04-24T02:24:16;8.48;;;4.07;;
22829;SDS011;11581;51.250;6.778;2023-04-24T02:26:42;6.38;;;4.00;;
22829;SDS011;11581;51.250;6.778;2023-04-24T02:29:09;6.72;;;4.25;;
22829;SDS011;11581;51.250;6.778;2023-04-24T02:31:35;6.75;;;4.05;;
22829;SDS011;11581;51.250;6.778;2023-04-24T02:34:02;7.97;;;4.35;;
22829;SDS011;11581;51.250;6.778;2023-04-24T02:36:28;5.97;;;3.92;;
22829;SDS011;11581;51.250;6.778;2023-04-24T02:38:55;6.05;;;3.83;;
22829;SDS011;11581;51.250;6.778;2023-04-24T02:41:21;7.93;;;4.65;;
22829;SDS011;11581;51.250;6.778;2023-04-24T02:43:48;9.45;;;3.97;;
22829;SDS011;11581;51.250;6.778;2023-04-24T02:46:14;8.18;;;4.90;;
22829;SDS011;11581;51.250;6.778;2023-04-24T02:48:41;8.23;;;4.90;;
22829;SDS011;11581;51.250;6.778;2023-04-24T02:51:07;8.77;;;4.88;;
22829;SDS011;11581;51.250;6.778;2023-04-24T02:53:35;8.77;;;5.10;;
22829;SDS011;11581;51.250;6.778;2023-04-24T02:56:01;7.90;;;4.57;;
22829;SDS011;11581;51.250;6.778;2023-04-24T02:58:28;8.55;;;5.05;;
22829;SDS011;11581;51.250;6.778;2023-04-24T03:00:54;9.25;;;5.68;;
22829;SDS011;11581;51.250;6.778;2023-04-24T03:03:21;8.05;;;4.65;;
22829;SDS011;11581;51.250;6.778;2023-04-24T03:05:48;8.55;;;4.32;;
22829;SDS011;11581;51.250;6.778;2023-04-24T03:08:15;9.82;;;4.65;;
22829;SDS011;11581;51.250;6.778;2023-04-24T03:10:42;10.43;;;4.85;;
22829;SDS011;11581;51.250;6.778;2023-04-24T03:13:09;11.27;;;5.32;;
22829;SDS011;11581;51.250;6.778;2023-04-24T03:15:36;8.65;;;5.20;;
22829;SDS011;11581;51.250;6.778;2023-04-24T03:18:02;10.75;;;5.32;;
22829;SDS011;11581;51.250;6.778;2023-04-24T03:20:29;9.45;;;5.22;;
22829;SDS011;11581;51.250;6.778;2023-04-24T03:22:56;8.02;;;4.50;;
22829;SDS011;11581;51.250;6.778;2023-04-24T03:25:23;6.70;;;4.60;;
22829;SDS011;11581;51.250;6.778;2023-04-24T03:27:50;9.32;;;4.55;;
22829;SDS011;11581;51.250;6.778;2023-04-24T03:30:38;7.10;;;4.30;;
22829;SDS011;11581;51.250;6.778;2023-04-24T03:33:05;9.35;;;4.07;;
22829;SDS011;11581;51.250;6.778;2023-04-24T03:35:35;7.70;;;4.43;;
22829;SDS011;11581;51.250;6.778;2023-04-24T03:38:06;5.78;;;4.20;;
22829;SDS011;11581;51.250;6.778;2023-04-24T03:40:55;7.75;;;4.20;;
22829;SDS011;11581;51.250;6.778;2023-04-24T03:43:39;6.53;;;4.00;;
22829;SDS011;11581;51.250;6.778;2023-04-24T03:46:06;7.50;;;4.40;;
22829;SDS011;11581;51.250;6.778;2023-04-24T03:48:37;10.98;;;4.38;;
22829;SDS011;11581;51.250;6.778;2023-04-24T03:51:04;8.15;;;4.70;;
22829;SDS011;11581;51.250;6.778;2023-04-24T03:53:32;8.60;;;4.65;;
22829;SDS011;11581;51.250;6.778;2023-04-24T03:55:59;8.40;;;4.65;;
22829;SDS011;11581;51.250;6.778;2023-04-24T03:58:26;10.93;;;4.63;;
22829;SDS011;11581;51.250;6.778;2023-04-24T04:00:54;8.70;;;4.40;;
22829;SDS011;11581;51.250;6.778;2023-04-24T04:03:37;8.05;;;4.68;;
22829;SDS011;11581;51.250;6.778;2023-04-24T04:06:04;6.75;;;4.25;;
22829;SDS011;11581;51.250;6.778;2023-04-24T04:08:30;6.93;;;4.07;;
22829;SDS011;11581;51.250;6.778;2023-04-24T04:10:57;5.85;;;4.15;;
22829;SDS011;11581;51.250;6.778;2023-04-24T04:13:23;11.70;;;4.88;;
22829;SDS011;11581;51.250;6.778;2023-04-24T04:15:50;8.70;;;4.60;;
22829;SDS011;11581;51.250;6.778;2023-04-24T04:18:16;7.00;;;4.35;;
22829;SDS011;11581;51.250;6.778;2023-04-24T04:20:43;6.75;;;4.25;;
22829;SDS011;11581;51.250;6.778;2023-04-24T04:23:12;7.57;;;4.20;;
22829;SDS011;11581;51.250;6.778;2023-04-24T04:25:48;7.68;;;4.25;;
22829;SDS011;11581;51.250;6.778;2023-04-24T04:28:17;7.57;;;4.32;;
22829;SDS011;11581;51.250;6.778;2023-04-24T04:30:45;6.82;;;4.25;;
22829;SDS011;11581;51.250;6.778;2023-04-24T04:33:12;8.80;;;4.57;;
22829;SDS011;11581;51.250;6.778;2023-04-24T04:35:40;6.20;;;3.85;;
22829;SDS011;11581;51.250;6.778;2023-04-24T04:38:08;8.10;;;3.92;;
22829;SDS011;11581;51.250;6.778;2023-04-24T04:40:57;8.57;;;4.28;;
22829;SDS011;11581;51.250;6.778;2023-04-24T04:43:27;6.90;;;3.95;;
22829;SDS011;11581;51.250;6.778;2023-04-24T04:45:54;4.97;;;3.65;;
22829;SDS011;11581;51.250;6.778;2023-04-24T04:48:46;6.78;;;4.30;;
22829;SDS011;11581;51.250;6.778;2023-04-24T04:51:13;6.40;;;4.15;;
22829;SDS011;11581;51.250;6.778;2023-04-24T04:53:40;7.68;;;4.13;;
22829;SDS011;11581;51.250;6.778;2023-04-24T04:56:06;6.40;;;4.10;;
22829;SDS011;11581;51.250;6.778;2023-04-24T04:58:39;9.60;;;4.78;;
22829;SDS011;11581;51.250;6.778;2023-04-24T05:01:09;7.28;;;4.38;;
22829;SDS011;11581;51.250;6.778;2023-04-24T05:03:40;9.40;;;4.35;;
22829;SDS011;11581;51.250;6.778;2023-04-24T05:06:09;6.30;;;4.53;;
22829;SDS011;11581;51.250;6.778;2023-04-24T05:08:38;10.95;;;4.43;;
22829;SDS011;11581;51.250;6.778;2023-04-24T05:11:08;6.30;;;4.22;;
22829;SDS011;11581;51.250;6.778;2023-04-24T05:13:36;8.55;;;4.05;;
22829;SDS011;11581;51.250;6.778;2023-04-24T05:16:05;6.53;;;4.35;;
22829;SDS011;11581;51.250;6.778;2023-04-24T05:18:32;7.13;;;3.90;;
22829;SDS011;11581;51.250;6.778;2023-04-24T05:20:59;7.00;;;3.70;;
22829;SDS011;11581;51.250;6.778;2023-04-24T05:23:26;7.10;;;4.20;;
22829;SDS011;11581;51.250;6.778;2023-04-24T05:25:54;5.28;;;4.03;;
22829;SDS011;11581;51.250;6.778;2023-04-24T05:28:21;8.05;;;4.38;;
22829;SDS011;11581;51.250;6.778;2023-04-24T05:31:00;7.05;;;4.00;;
22829;SDS011;11581;51.250;6.778;2023-04-24T05:33:27;10.68;;;4.60;;
22829;SDS011;11581;51.250;6.778;2023-04-24T05:35:54;4.70;;;3.20;;
22829;SDS011;11581;51.250;6.778;2023-04-24T05:38:20;6.05;;;4.05;;
22829;SDS011;11581;51.250;6.778;2023-04-24T05:40:47;6.13;;;4.22;;
22829;SDS011;11581;51.250;6.778;2023-04-24T05:43:14;5.57;;;3.90;;
22829;SDS011;11581;51.250;6.778;2023-04-24T05:45:40;5.68;;;3.88;;
22829;SDS011;11581;51.250;6.778;2023-04-24T05:48:07;6.25;;;3.80;;
22829;SDS011;11581;51.250;6.778;2023-04-24T05:50:33;6.50;;;4.13;;
22829;SDS011;11581;51.250;6.778;2023-04-24T05:53:00;7.05;;;3.83;;
22829;SDS011;11581;51.250;6.778;2023-04-24T05:55:31;6.20;;;3.80;;
22829;SDS011;11581;51.250;6.778;2023-04-24T05:57:58;4.80;;;3.72;;
22829;SDS011;11581;51.250;6.778;2023-04-24T06:00:25;6.78;;;3.75;;
22829;SDS011;11581;51.250;6.778;2023-04-24T06:03:00;5.38;;;3.90;;
22829;SDS011;11581;51.250;6.778;2023-04-24T06:05:29;5.43;;;3.60;;
22829;SDS011;11581;51.250;6.778;2023-04-24T06:07:56;6.45;;;3.88;;
22829;SDS011;11581;51.250;6.778;2023-04-24T06:10:26;6.57;;;3.50;;
22829;SDS011;11581;51.250;6.778;2023-04-24T06:12:52;6.50;;;3.55;;
22829;SDS011;11581;51.250;6.778;2023-04-24T06:15:21;6.47;;;3.80;;
22829;SDS011;11581;51.250;6.778;2023-04-24T06:17:55;4.28;;;2.85;;
22829;SDS011;11581;51.250;6.778;2023-04-24T06:20:25;5.97;;;3.47;;
22829;SDS011;11581;51.250;6.778;2023-04-24T06:22:51;4.90;;;3.30;;
22829;SDS011;11581;51.250;6.778;2023-04-24T06:25:19;5.22;;;3.28;;
22829;SDS011;11581;51.250;6.778;2023-04-24T06:27:45;4.78;;;3.00;;
22829;SDS011;11581;51.250;6.778;2023-04-24T06:30:12;6.68;;;3.08;;
22829;SDS011;11581;51.250;6.778;2023-04-24T06:32:39;6.97;;;3.35;;
22829;SDS011;11581;51.250;6.778;2023-04-24T06:35:06;4.65;;;2.60;;
22829;SDS011;11581;51.250;6.778;2023-04-24T06:37:33;5.13;;;3.42;;
22829;SDS011;11581;51.250;6.778;2023-04-24T06:39:59;5.03;;;2.70;;
22829;SDS011;11581;51.250;6.778;2023-04-24T06:42:26;4.50;;;2.55;;
22829;SDS011;11581;51.250;6.778;2023-04-24T06:44:54;3.50;;;2.30;;
22829;SDS011;11581;51.250;6.778;2023-04-24T06:47:20;4.25;;;2.72;;
22829;SDS011;11581;51.250;6.778;2023-04-24T06:49:47;5.70;;;2.90;;
22829;SDS011;11581;51.250;6.778;2023-04-24T06:52:15;9.40;;;2.53;;
22829;SDS011;11581;51.250;6.778;2023-04-24T06:54:42;6.32;;;3.20;;
22829;SDS011;11581;51.250;6.778;2023-04-24T06:57:09;7.72;;;2.50;;
22829;SDS011;11581;51.250;6.778;2023-04-24T06:59:35;4.20;;;2.40;;
22829;SDS011;11581;51.250;6.778;2023-04-24T07:02:02;4.28;;;2.20;;
22829;SDS011;11581;51.250;6.778;2023-04-24T07:04:29;5.28;;;2.83;;
22829;SDS011;11581;51.250;6.778;2023-04-24T07:06:56;6.35;;;3.10;;
22829;SDS011;11581;51.250;6.778;2023-04-24T07:09:23;4.35;;;2.38;;
22829;SDS011;11581;51.250;6.778;2023-04-24T07:11:51;3.63;;;2.30;;
22829;SDS011;11581;51.250;6.778;2023-04-24T07:14:19;4.68;;;2.17;;
22829;SDS011;11581;51.250;6.778;2023-04-24T07:16:46;9.05;;;2.40;;
22829;SDS011;11581;51.250;6.778;2023-04-24T07:19:13;2.53;;;1.98;;
22829;SDS011;11581;51.250;6.778;2023-04-24T07:21:39;4.80;;;1.95;;
22829;SDS011;11581;51.250;6.778;2023-04-24T07:24:06;3.70;;;2.10;;
22829;SDS011;11581;51.250;6.778;2023-04-24T07:26:35;3.42;;;1.85;;
22829;SDS011;11581;51.250;6.778;2023-04-24T07:29:03;4.75;;;1.90;;
22829;SDS011;11581;51.250;6.778;2023-04-24T07:31:30;3.45;;;1.48;;
22829;SDS011;11581;51.250;6.778;2023-04-24T07:33:56;2.40;;;1.38;;
22829;SDS011;11581;51.250;6.778;2023-04-24T07:36:24;2.13;;;1.10;;
22829;SDS011;11581;51.250;6.778;2023-04-24T07:38:51;2.72;;;1.02;;
22829;SDS011;11581;51.250;6.778;2023-04-24T07:41:17;1.77;;;0.80;;
22829;SDS011;11581;51.250;6.778;2023-04-24T07:43:44;1.27;;;0.60;;
22829;SDS011;11581;51.250;6.778;2023-04-24T07:46:10;1.30;;;0.65;;
22829;SDS011;11581;51.250;6.778;2023-04-24T07:48:37;1.05;;;0.57;;
22829;SDS011;11581;51.250;6.778;2023-04-24T07:51:03;0.47;;;0.30;;
22829;SDS011;11581;51.250;6.778;2023-04-24T07:53:30;2.85;;;0.50;;
22829;SDS011;11581;51.250;6.778;2023-04-24T07:55:56;1.13;;;0.30;;
22829;SDS011;11581;51.250;6.778;2023-04-24T07:58:23;1.15;;;0.50;;
22829;SDS011;11581;51.250;6.778;2023-04-24T08:00:50;1.13;;;0.52;;
22829;SDS011;11581;51.250;6.778;2023-04-24T08:03:17;0.73;;;0.40;;
22829;SDS011;11581;51.250;6.778;2023-04-24T08:05:44;0.90;;;0.60;;
22829;SDS011;11581;51.250;6.778;2023-04-24T08:08:11;0.88;;;0.80;;
22829;SDS011;11581;51.250;6.778;2023-04-24T08:10:37;1.30;;;0.63;;
22829;SDS011;11581;51.250;6.778;2023-04-24T08:13:04;7.00;;;1.38;;
22829;SDS011;11581;51.250;6.778;2023-04-24T08:15:31;0.52;;;0.38;;
22829;SDS011;11581;51.250;6.778;2023-04-24T08:17:57;1.38;;;0.73;;
22829;SDS011;11581;51.250;6.778;2023-04-24T08:20:24;1.08;;;0.50;;
22829;SDS011;11581;51.250;6.778;2023-04-24T08:22:50;1.83;;;0.60;;
22829;SDS011;11581;51.250;6.778;2023-04-24T08:25:17;2.08;;;0.80;;
22829;SDS011;11581;51.250;6.778;2023-04-24T08:27:44;2.20;;;0.70;;
22829;SDS011;11581;51.250;6.778;2023-04-24T08:30:11;1.60;;;0.75;;
22829;SDS011;11581;51.250;6.778;2023-04-24T08:32:37;1.30;;;0.70;;
22829;SDS011;11581;51.250;6.778;2023-04-24T08:35:04;3.30;;;1.00;;
22829;SDS011;11581;51.250;6.778;2023-04-24T08:37:30;0.70;;;0.47;;
22829;SDS011;11581;51.250;6.778;2023-04-24T08:39:57;1.00;;;0.57;;
22829;SDS011;11581;51.250;6.778;2023-04-24T08:42:23;1.85;;;0.85;;
22829;SDS011;11581;51.250;6.778;2023-04-24T08:44:52;4.35;;;0.95;;
22829;SDS011;11581;51.250;6.778;2023-04-24T08:47:18;2.08;;;1.00;;
22829;SDS011;11581;51.250;6.778;2023-04-24T08:49:46;1.83;;;0.98;;
22829;SDS011;11581;51.250;6.778;2023-04-24T08:52:14;2.47;;;1.02;;
22829;SDS011;11581;51.250;6.778;2023-04-24T08:54:41;1.83;;;0.90;;
22829;SDS011;11581;51.250;6.778;2023-04-24T08:57:10;2.10;;;1.10;;
22829;SDS011;11581;51.250;6.778;2023-04-24T08:59:40;4.30;;;1.83;;
22829;SDS011;11581;51.250;6.778;2023-04-24T09:02:08;2.92;;;1.73;;
22829;SDS011;11581;51.250;6.778;2023-04-24T09:04:36;3.13;;;1.80;;
22829;SDS011;11581;51.250;6.778;2023-04-24T09:07:04;3.85;;;2.15;;
22829;SDS011;11581;51.250;6.778;2023-04-24T09:09:33;4.35;;;1.95;;
22829;SDS011;11581;51.250;6.778;2023-04-24T09:12:00;3.22;;;1.85;;
22829;SDS011;11581;51.250;6.778;2023-04-24T09:14:28;2.15;;;1.55;;
22829;SDS011;11581;51.250;6.778;2023-04-24T09:16:57;2.75;;;1.55;;
22829;SDS011;11581;51.250;6.778;2023-04-24T09:19:23;4.03;;;1.63;;
22829;SDS011;11581;51.250;6.778;2023-04-24T09:21:50;3.22;;;1.77;;
22829;SDS011;11581;51.250;6.778;2023-04-24T09:24:19;3.15;;;1.75;;
22829;SDS011;11581;51.250;6.778;2023-04-24T09:26:48;2.67;;;1.70;;
22829;SDS011;11581;51.250;6.778;2023-04-24T09:29:22;3.47;;;2.20;;
22829;SDS011;11581;51.250;6.778;2023-04-24T09:31:48;2.42;;;1.75;;
22829;SDS011;11581;51.250;6.778;2023-04-24T09:34:18;3.40;;;2.20;;
22829;SDS011;11581;51.250;6.778;2023-04-24T09:36:47;4.10;;;2.13;;
22829;SDS011;11581;51.250;6.778;2023-04-24T09:39:14;4.13;;;2.05;;
22829;SDS011;11581;51.250;6.778;2023-04-24T09:41:49;3.17;;;1.90;;
22829;SDS011;11581;51.250;6.778;2023-04-24T09:44:20;6.07;;;2.50;;
22829;SDS011;11581;51.250;6.778;2023-04-24T09:46:49;4.75;;;2.35;;
22829;SDS011;11581;51.250;6.778;2023-04-24T09:49:21;3.63;;;2.50;;
22829;SDS011;11581;51.250;6.778;2023-04-24T09:51:50;6.72;;;2.83;;
22829;SDS011;11581;51.250;6.778;2023-04-24T09:54:17;6.50;;;2.60;;
22829;SDS011;11581;51.250;6.778;2023-04-24T09:56:47;6.60;;;2.95;;
22829;SDS011;11581;51.250;6.778;2023-04-24T09:59:16;6.43;;;3.08;;
22829;SDS011;11581;51.250;6.778;2023-04-24T10:01:45;6.90;;;3.33;;
22829;SDS011;11581;51.250;6.778;2023-04-24T10:06:48;7.10;;;2.90;;
22829;SDS011;11581;51.250;6.778;2023-04-24T10:09:16;5.10;;;2.60;;
22829;SDS011;11581;51.250;6.778;2023-04-24T10:11:45;5.82;;;2.97;;
22829;SDS011;11581;51.250;6.778;2023-04-24T10:14:14;7.30;;;3.40;;
22829;SDS011;11581;51.250;6.778;2023-04-24T10:16:42;8.10;;;3.45;;
22829;SDS011;11581;51.250;6.778;2023-04-24T10:19:11;8.50;;;3.30;;
22829;SDS011;11581;51.250;6.778;2023-04-24T10:21:40;6.45;;;2.92;;
22829;SDS011;11581;51.250;6.778;2023-04-24T10:24:11;7.10;;;3.30;;
22829;SDS011;11581;51.250;6.778;2023-04-24T10:26:39;8.55;;;3.42;;
22829;SDS011;11581;51.250;6.778;2023-04-24T10:29:06;4.43;;;3.00;;
22829;SDS011;11581;51.250;6.778;2023-04-24T10:31:35;9.30;;;3.80;;
22829;SDS011;11581;51.250;6.778;2023-04-24T10:34:04;6.60;;;3.50;;
22829;SDS011;11581;51.250;6.778;2023-04-24T10:36:34;7.40;;;3.05;;
22829;SDS011;11581;51.250;6.778;2023-04-24T10:39:06;9.57;;;3.03;;
22829;SDS011;11581;51.250;6.778;2023-04-24T10:41:36;7.07;;;3.33;;
22829;SDS011;11581;51.250;6.778;2023-04-24T10:44:22;7.45;;;2.80;;
22829;SDS011;11581;51.250;6.778;2023-04-24T10:46:52;5.43;;;2.53;;
22829;SDS011;11581;51.250;6.778;2023-04-24T10:49:30;6.85;;;2.40;;
22829;SDS011;11581;51.250;6.778;2023-04-24T10:52:02;7.00;;;2.55;;
22829;SDS011;11581;51.250;6.778;2023-04-24T10:54:41;5.78;;;2.70;;
22829;SDS011;11581;51.250;6.778;2023-04-24T10:59:44;8.20;;;3.28;;
22829;SDS011;11581;51.250;6.778;2023-04-24T11:02:14;10.10;;;3.55;;
22829;SDS011;11581;51.250;6.778;2023-04-24T11:04:41;8.50;;;3.13;;
22829;SDS011;11581;51.250;6.778;2023-04-24T11:07:11;9.23;;;3.95;;
22829;SDS011;11581;51.250;6.778;2023-04-24T11:09:38;7.43;;;3.38;;
22829;SDS011;11581;51.250;6.778;2023-04-24T11:12:11;9.48;;;3.63;;
22829;SDS011;11581;51.250;6.778;2023-04-24T11:20:05;9.82;;;2.83;;
22829;SDS011;11581;51.250;6.778;2023-04-24T11:22:36;7.90;;;2.67;;
22829;SDS011;11581;51.250;6.778;2023-04-24T11:25:05;6.97;;;2.90;;
22829;SDS011;11581;51.250;6.778;2023-04-24T11:27:38;8.05;;;2.47;;
22829;SDS011;11581;51.250;6.778;2023-04-24T11:30:06;6.32;;;2.92;;
22829;SDS011;11581;51.250;6.778;2023-04-24T11:37:34;6.45;;;2.25;;
22829;SDS011;11581;51.250;6.778;2023-04-24T11:40:03;7.10;;;2.45;;
22829;SDS011;11581;51.250;6.778;2023-04-24T11:42:38;6.40;;;2.38;;
22829;SDS011;11581;51.250;6.778;2023-04-24T11:45:10;11.00;;;2.60;;
22829;SDS011;11581;51.250;6.778;2023-04-24T11:47:36;8.38;;;2.50;;
22829;SDS011;11581;51.250;6.778;2023-04-24T11:50:04;10.73;;;2.42;;
22829;SDS011;11581;51.250;6.778;2023-04-24T11:52:33;7.20;;;2.72;;
22829;SDS011;11581;51.250;6.778;2023-04-24T11:55:04;7.55;;;2.15;;
22829;SDS011;11581;51.250;6.778;2023-04-24T11:57:32;10.02;;;2.67;;
22829;SDS011;11581;51.250;6.778;2023-04-24T12:00:01;6.22;;;2.30;;
22829;SDS011;11581;51.250;6.778;2023-04-24T12:02:37;7.95;;;2.30;;
22829;SDS011;11581;51.250;6.778;2023-04-24T12:05:03;4.75;;;2.10;;
22829;SDS011;11581;51.250;6.778;2023-04-24T12:07:30;7.70;;;2.08;;
22829;SDS011;11581;51.250;6.778;2023-04-24T12:10:08;5.00;;;2.00;;
22829;SDS011;11581;51.250;6.778;2023-04-24T12:12:35;4.35;;;2.00;;
22829;SDS011;11581;51.250;6.778;2023-04-24T12:15:05;5.72;;;1.67;;
22829;SDS011;11581;51.250;6.778;2023-04-24T12:17:34;7.80;;;2.10;;
22829;SDS011;11581;51.250;6.778;2023-04-24T12:20:05;6.93;;;2.00;;
22829;SDS011;11581;51.250;6.778;2023-04-24T12:25:32;5.10;;;2.10;;
22829;SDS011;11581;51.250;6.778;2023-04-24T12:30:29;6.45;;;1.98;;
22829;SDS011;11581;51.250;6.778;2023-04-24T12:32:57;3.80;;;1.40;;
22829;SDS011;11581;51.250;6.778;2023-04-24T12:35:26;3.70;;;1.40;;
22829;SDS011;11581;51.250;6.778;2023-04-24T12:37:54;3.40;;;1.52;;
22829;SDS011;11581;51.250;6.778;2023-04-24T12:40:21;3.53;;;1.20;;
22829;SDS011;11581;51.250;6.778;2023-04-24T12:42:50;6.35;;;1.30;;
22829;SDS011;11581;51.250;6.778;2023-04-24T12:45:18;3.45;;;1.27;;
22829;SDS011;11581;51.250;6.778;2023-04-24T12:47:45;5.32;;;1.17;;
22829;SDS011;11581;51.250;6.778;2023-04-24T12:50:12;2.75;;;1.10;;
22829;SDS011;11581;51.250;6.778;2023-04-24T12:52:41;3.80;;;1.10;;
22829;SDS011;11581;51.250;6.778;2023-04-24T12:55:08;6.22;;;0.98;;
22829;SDS011;11581;51.250;6.778;2023-04-24T12:57:37;4.30;;;1.17;;
22829;SDS011;11581;51.250;6.778;2023-04-24T13:00:05;2.08;;;0.90;;
22829;SDS011;11581;51.250;6.778;2023-04-24T13:02:33;3.67;;;0.90;;
22829;SDS011;11581;51.250;6.778;2023-04-24T13:05:00;2.33;;;0.90;;
22829;SDS011;11581;51.250;6.778;2023-04-24T13:07:27;2.05;;;0.80;;
22829;SDS011;11581;51.250;6.778;2023-04-24T13:09:55;2.05;;;0.93;;
22829;SDS011;11581;51.250;6.778;2023-04-24T13:12:22;2.15;;;0.90;;
22829;SDS011;11581;51.250;6.778;2023-04-24T13:14:50;3.78;;;1.20;;
22829;SDS011;11581;51.250;6.778;2023-04-24T13:17:17;3.25;;;0.85;;
22829;SDS011;11581;51.250;6.778;2023-04-24T13:19:43;1.73;;;0.70;;
22829;SDS011;11581;51.250;6.778;2023-04-24T13:22:11;2.90;;;1.00;;
22829;SDS011;11581;51.250;6.778;2023-04-24T13:24:38;1.88;;;0.63;;
22829;SDS011;11581;51.250;6.778;2023-04-24T13:27:06;2.10;;;0.85;;
22829;SDS011;11581;51.250;6.778;2023-04-24T13:29:33;2.58;;;0.68;;
22829;SDS011;11581;51.250;6.778;2023-04-24T13:31:59;1.23;;;0.73;;
22829;SDS011;11581;51.250;6.778;2023-04-24T13:34:26;2.13;;;0.68;;
22829;SDS011;11581;51.250;6.778;2023-04-24T13:36:53;1.15;;;0.50;;
22829;SDS011;11581;51.250;6.778;2023-04-24T13:39:22;3.80;;;0.70;;
22829;SDS011;11581;51.250;6.778;2023-04-24T13:41:49;1.90;;;0.80;;
22829;SDS011;11581;51.250;6.778;2023-04-24T13:44:16;4.20;;;0.98;;
22829;SDS011;11581;51.250;6.778;2023-04-24T13:46:44;4.13;;;0.90;;
22829;SDS011;11581;51.250;6.778;2023-04-24T13:49:13;3.75;;;0.90;;
22829;SDS011;11581;51.250;6.778;2023-04-24T13:51:41;2.75;;;0.70;;
22829;SDS011;11581;51.250;6.778;2023-04-24T13:54:08;3.25;;;0.82;;
22829;SDS011;11581;51.250;6.778;2023-04-24T13:56:34;4.45;;;1.08;;
22829;SDS011;11581;51.250;6.778;2023-04-24T13:59:01;3.85;;;0.95;;
22829;SDS011;11581;51.250;6.778;2023-04-24T14:01:28;2.33;;;0.88;;
22829;SDS011;11581;51.250;6.778;2023-04-24T14:03:55;3.40;;;1.00;;
22829;SDS011;11581;51.250;6.778;2023-04-24T14:06:22;4.35;;;0.70;;
22829;SDS011;11581;51.250;6.778;2023-04-24T14:08:49;2.67;;;0.70;;
22829;SDS011;11581;51.250;6.778;2023-04-24T14:11:16;1.65;;;0.60;;
22829;SDS011;11581;51.250;6.778;2023-04-24T14:13:44;3.45;;;0.70;;
22829;SDS011;11581;51.250;6.778;2023-04-24T14:16:10;2.17;;;0.60;;
22829;SDS011;11581;51.250;6.778;2023-04-24T14:18:37;4.57;;;1.10;;
22829;SDS011;11581;51.250;6.778;2023-04-24T14:21:04;1.92;;;0.90;;
22829;SDS011;11581;51.250;6.778;2023-04-24T14:23:31;4.55;;;1.00;;
22829;SDS011;11581;51.250;6.778;2023-04-24T14:25:58;4.47;;;1.15;;
22829;SDS011;11581;51.250;6.778;2023-04-24T14:28:24;6.85;;;1.33;;
22829;SDS011;11581;51.250;6.778;2023-04-24T14:30:51;2.53;;;0.80;;
22829;SDS011;11581;51.250;6.778;2023-04-24T14:33:18;1.88;;;0.80;;
22829;SDS011;11581;51.250;6.778;2023-04-24T14:35:45;3.35;;;1.00;;
22829;SDS011;11581;51.250;6.778;2023-04-24T14:38:12;1.23;;;0.60;;
22829;SDS011;11581;51.250;6.778;2023-04-24T14:40:39;1.92;;;0.80;;
22829;SDS011;11581;51.250;6.778;2023-04-24T14:43:06;2.80;;;1.00;;
22829;SDS011;11581;51.250;6.778;2023-04-24T14:45:32;1.27;;;0.50;;
22829;SDS011;11581;51.250;6.778;2023-04-24T14:47:59;1.98;;;0.70;;
22829;SDS011;11581;51.250;6.778;2023-04-24T14:50:25;3.53;;;0.75;;
22829;SDS011;11581;51.250;6.778;2023-04-24T14:52:53;1.40;;;0.63;;
22829;SDS011;11581;51.250;6.778;2023-04-24T14:55:22;2.72;;;0.82;;
22829;SDS011;11581;51.250;6.778;2023-04-24T14:57:49;2.35;;;1.00;;
22829;SDS011;11581;51.250;6.778;2023-04-24T15:00:16;2.58;;;0.80;;
22829;SDS011;11581;51.250;6.778;2023-04-24T15:02:42;3.72;;;0.70;;
22829;SDS011;11581;51.250;6.778;2023-04-24T15:05:09;1.95;;;0.90;;
22829;SDS011;11581;51.250;6.778;2023-04-24T15:07:38;2.75;;;0.95;;
22829;SDS011;11581;51.250;6.778;2023-04-24T15:10:06;5.15;;;0.82;;
22829;SDS011;11581;51.250;6.778;2023-04-24T15:12:33;3.15;;;0.80;;
22829;SDS011;11581;51.250;6.778;2023-04-24T15:15:00;1.38;;;0.70;;